Airport View

Enter AWOS ICAO identifier for current METAR.

ex. KFNL

KDVT 290407Z 00000KT 10SM CLR 28/01 A2992 RMK AO2 T02780011

29 Sep 2020 04:17

Phone: 623-587-7764

Other Area AWOS: KSDL - KGEU - KPHX - KFFZ

TAF KSDL 282329Z 2900/2924 VRB05KT P6SM SKC FM290400 06008KT P6SM SKC FM291600 10011G18KT P6SM SKC FM291900 12008KT P6SM SKC